Time;durP1;ratioP1;P1;durP2;ratioP2;P2;SDS_P1;SDS_P2;PMS_P1;PMS_P2;Temp;Humidity;BMP_temperature;BMP_pressure;BME280_temperature;BME280_humidity;BME280_pressure;Samples;Min_cycle;Max_cycle;Signal;HPM_P1;HPM_P2
2022/12/20 00:00:28;;;;;;;7.83;4.17;;;2.00;98.00;;;;;;4992704;28;20461;-75
2022/12/20 00:02:55;;;;;;;5.63;4.33;;;2.00;98.00;;;;;;4992787;28;20457;-75
2022/12/20 00:05:22;;;;;;;6.10;4.10;;;2.00;98.00;;;;;;4993055;28;20461;-75
2022/12/20 00:07:49;;;;;;;7.27;3.90;;;1.90;98.00;;;;;;4993193;28;20523;-76
2022/12/20 00:10:16;;;;;;;4.43;3.17;;;1.80;98.00;;;;;;4993118;28;20456;-76
2022/12/20 00:12:43;;;;;;;5.80;4.20;;;1.80;98.00;;;;;;4992903;28;20520;-76
2022/12/20 00:15:12;;;;;;;8.30;4.30;;;1.80;98.00;;;;;;4992681;28;20875;-75
2022/12/20 00:17:39;;;;;;;5.87;3.47;;;1.90;98.00;;;;;;4992887;28;20824;-75
2022/12/20 00:20:10;;;;;;;7.67;3.80;;;1.90;98.00;;;;;;4992869;28;20476;-75
2022/12/20 00:22:37;;;;;;;6.20;4.40;;;1.90;98.00;;;;;;4975807;28;20592;-76
2022/12/20 00:25:07;;;;;;;8.63;4.60;;;1.80;98.00;;;;;;4995053;28;20486;-75
2022/12/20 00:27:34;;;;;;;6.97;4.43;;;1.80;98.00;;;;;;4996585;28;20463;-75
2022/12/20 00:30:03;;;;;;;7.80;4.97;;;1.80;98.00;;;;;;4996377;28;20461;-75
2022/12/20 00:32:33;;;;;;;7.60;4.67;;;1.80;98.00;;;;;;4995910;28;20508;-75
2022/12/20 00:35:01;;;;;;;4.37;3.37;;;1.90;98.00;;;;;;4995461;28;20563;-76
2022/12/20 00:37:28;;;;;;;14.93;3.73;;;2.00;98.00;;;;;;4995313;28;20468;-75
2022/12/20 00:39:55;;;;;;;7.07;3.73;;;2.00;98.00;;;;;;4996123;28;20456;-75
2022/12/20 00:42:22;;;;;;;7.83;4.60;;;2.20;98.00;;;;;;4995818;28;20475;-75
2022/12/20 00:44:50;;;;;;;7.70;4.30;;;2.20;98.00;;;;;;4995726;28;20467;-75
2022/12/20 00:47:17;;;;;;;8.73;4.60;;;2.20;98.00;;;;;;4995602;28;20475;-75
2022/12/20 00:49:45;;;;;;;7.47;3.73;;;2.10;98.00;;;;;;4995545;28;20463;-75
2022/12/20 00:52:12;;;;;;;6.23;3.70;;;2.10;98.00;;;;;;4995414;28;20540;-74
2022/12/20 00:54:39;;;;;;;4.57;3.00;;;2.00;98.00;;;;;;4995585;28;20560;-74
2022/12/20 00:57:14;;;;;;;6.20;3.90;;;1.90;98.00;;;;;;4995580;28;20473;-75
2022/12/20 00:59:41;;;;;;;9.07;5.03;;;1.80;98.00;;;;;;4995807;28;20467;-75
2022/12/20 01:02:08;;;;;;;6.23;3.50;;;1.80;98.00;;;;;;4995562;28;20453;-75
2022/12/20 01:04:35;;;;;;;6.97;3.30;;;1.80;98.00;;;;;;4995782;28;20483;-75
2022/12/20 01:07:04;;;;;;;4.63;3.30;;;1.80;98.00;;;;;;4978110;28;20464;-75
2022/12/20 01:09:32;;;;;;;10.70;4.17;;;1.80;98.00;;;;;;4995828;28;20463;-75
2022/12/20 01:11:59;;;;;;;4.67;3.40;;;1.70;98.00;;;;;;4995705;28;20468;-74
2022/12/20 01:14:26;;;;;;;6.70;3.60;;;1.60;98.00;;;;;;4995682;28;20484;-75
2022/12/20 01:16:53;;;;;;;4.10;3.60;;;1.70;98.00;;;;;;4995571;28;20468;-75
2022/12/20 01:19:20;;;;;;;4.53;3.20;;;1.70;98.00;;;;;;4995644;28;20459;-75
2022/12/20 01:21:47;;;;;;;4.40;3.70;;;1.80;98.00;;;;;;4995239;28;20468;-75
2022/12/20 01:24:18;;;;;;;7.17;3.83;;;1.80;98.00;;;;;;4995615;28;20809;-75
2022/12/20 01:26:46;;;;;;;7.50;4.17;;;1.80;98.00;;;;;;4995378;28;20471;-75
2022/12/20 01:29:13;;;;;;;3.70;2.93;;;1.80;98.00;;;;;;4995400;28;20499;-74
2022/12/20 01:31:41;;;;;;;6.30;4.53;;;1.80;98.00;;;;;;4995135;28;20483;-75
2022/12/20 01:34:09;;;;;;;4.73;3.77;;;1.90;98.00;;;;;;4995138;28;20492;-75
2022/12/20 01:36:39;;;;;;;8.73;4.63;;;1.90;98.00;;;;;;4994179;28;20524;-75
2022/12/20 01:39:08;;;;;;;5.57;3.53;;;2.00;98.00;;;;;;4995229;28;20457;-75
2022/12/20 01:41:37;;;;;;;9.07;4.63;;;2.00;98.00;;;;;;4995244;28;20592;-76
2022/12/20 01:44:07;;;;;;;7.07;3.27;;;1.90;98.00;;;;;;4995331;28;20448;-75
2022/12/20 01:46:36;;;;;;;4.27;3.70;;;1.90;98.00;;;;;;4995084;28;20468;-74
2022/12/20 01:49:09;;;;;;;6.33;4.43;;;1.90;98.00;;;;;;4995151;28;20500;-75
2022/12/20 01:51:41;;;;;;;3.40;3.10;;;2.00;98.00;;;;;;4977715;28;20507;-74
2022/12/20 01:54:13;;;;;;;5.73;3.60;;;2.00;98.00;;;;;;4995122;28;20532;-75
2022/12/20 01:56:43;;;;;;;7.17;4.00;;;2.00;98.00;;;;;;4994891;28;20468;-75
2022/12/20 01:59:12;;;;;;;4.93;3.47;;;2.00;98.00;;;;;;4994996;28;20522;-75
2022/12/20 02:01:41;;;;;;;4.70;3.40;;;2.00;98.00;;;;;;4995099;28;20452;-75
2022/12/20 02:04:08;;;;;;;6.20;3.70;;;2.10;98.00;;;;;;4994373;28;20973;-75
2022/12/20 02:06:36;;;;;;;4.77;3.63;;;2.00;98.00;;;;;;4994609;28;20947;-75
2022/12/20 02:09:04;;;;;;;12.70;4.27;;;2.00;98.00;;;;;;4994210;28;20468;-75
2022/12/20 02:11:55;;;;;;;7.77;4.00;;;1.90;98.00;;;;;;4994252;28;20533;-75
2022/12/20 02:14:39;;;;;;;11.00;3.73;;;2.00;98.00;;;;;;4994468;28;20495;-75
2022/12/20 02:17:13;;;;;;;7.80;3.23;;;1.80;98.00;;;;;;4994319;28;20460;-74
2022/12/20 02:20:06;;;;;;;8.17;4.23;;;1.90;98.00;;;;;;4993779;28;20495;-75
2022/12/20 02:22:46;;;;;;;7.10;4.20;;;1.90;98.00;;;;;;4994164;28;20460;-74
2022/12/20 02:25:52;;;;;;;7.00;3.67;;;1.80;98.00;;;;;;4994167;28;20452;-74
2022/12/20 02:28:41;;;;;;;10.53;3.50;;;1.80;98.00;;;;;;4983714;28;20499;-75
2022/12/20 02:31:13;;;;;;;7.80;2.87;;;1.80;98.00;;;;;;4993939;28;20884;-75
2022/12/20 02:33:43;;;;;;;7.43;3.40;;;1.80;98.00;;;;;;4993733;28;20452;-75
2022/12/20 02:36:14;;;;;;;8.73;3.70;;;1.80;98.00;;;;;;4994146;28;20468;-75
2022/12/20 02:38:44;;;;;;;8.13;3.40;;;1.80;98.00;;;;;;4993844;28;20478;-74
2022/12/20 02:41:17;;;;;;;3.70;3.23;;;2.00;98.00;;;;;;4976524;28;20491;-75
2022/12/20 02:46:35;;;;;;;6.57;3.93;;;2.10;98.00;;;;;;4993556;28;20452;-76
2022/12/20 02:49:10;;;;;;;7.67;3.17;;;2.00;98.00;;;;;;4993777;28;20461;-75
2022/12/20 02:51:38;;;;;;;6.83;2.93;;;2.00;98.00;;;;;;4993616;28;20591;-74
2022/12/20 02:54:07;;;;;;;6.90;4.10;;;2.00;98.00;;;;;;4993340;28;20483;-75
2022/12/20 02:56:41;;;;;;;6.30;3.20;;;1.90;98.00;;;;;;4993266;28;20818;-76
2022/12/20 02:59:15;;;;;;;4.10;3.07;;;1.90;98.00;;;;;;4993269;28;20507;-75
2022/12/20 03:01:48;;;;;;;8.70;5.70;;;1.90;98.00;;;;;;4993559;28;20456;-76
2022/12/20 03:04:17;;;;;;;6.13;4.30;;;1.80;98.00;;;;;;4993020;28;20459;-75
2022/12/20 03:06:57;;;;;;;8.27;5.00;;;1.80;98.00;;;;;;4993197;28;20464;-75
2022/12/20 03:09:24;;;;;;;5.67;4.10;;;1.80;98.00;;;;;;4993134;28;20456;-74
2022/12/20 03:11:52;;;;;;;9.07;3.30;;;2.00;98.00;;;;;;4993084;28;20464;-75
2022/12/20 03:14:19;;;;;;;7.63;4.63;;;2.10;98.00;;;;;;4993037;28;21013;-74
2022/12/20 03:16:47;;;;;;;8.83;3.47;;;2.00;98.00;;;;;;4993369;28;20456;-76
2022/12/20 03:19:17;;;;;;;7.20;3.87;;;2.00;98.00;;;;;;4993101;28;20460;-75
2022/12/20 03:21:45;;;;;;;7.67;4.30;;;1.90;98.00;;;;;;4992951;28;20453;-75
2022/12/20 03:24:13;;;;;;;6.30;4.20;;;1.90;98.00;;;;;;4993089;28;20465;-75
2022/12/20 03:26:41;;;;;;;5.20;3.60;;;2.00;98.00;;;;;;4992816;28;20460;-75
2022/12/20 03:29:08;;;;;;;5.27;3.37;;;1.90;98.00;;;;;;4992986;28;20947;-75
2022/12/20 03:31:35;;;;;;;5.20;3.90;;;1.90;98.00;;;;;;4992828;28;20460;-77
2022/12/20 03:34:04;;;;;;;10.53;3.23;;;1.80;98.00;;;;;;4992899;28;20463;-75
2022/12/20 03:36:32;;;;;;;8.27;3.90;;;1.90;98.00;;;;;;4992908;28;20452;-75
2022/12/20 03:38:59;;;;;;;6.13;3.67;;;1.90;98.00;;;;;;4992692;28;20456;-75
2022/12/20 03:41:27;;;;;;;8.30;4.83;;;1.90;98.00;;;;;;4992895;28;20479;-75
2022/12/20 03:43:54;;;;;;;6.50;3.00;;;2.10;98.00;;;;;;4992709;28;20468;-75
2022/12/20 03:46:21;;;;;;;7.13;3.60;;;2.00;98.00;;;;;;4992713;28;20484;-75
2022/12/20 03:48:48;;;;;;;12.60;4.03;;;2.00;98.00;;;;;;4975451;28;20456;-75
2022/12/20 03:51:17;;;;;;;4.80;4.03;;;1.90;98.00;;;;;;4992455;28;20527;-75
2022/12/20 03:53:44;;;;;;;6.60;3.90;;;1.90;98.00;;;;;;4992610;28;20457;-75
2022/12/20 03:56:11;;;;;;;9.50;4.53;;;1.90;98.00;;;;;;4991144;28;20488;-75
2022/12/20 03:58:40;;;;;;;6.00;3.50;;;1.90;98.00;;;;;;4992981;28;20487;-76
2022/12/20 04:01:18;;;;;;;6.40;4.00;;;1.80;98.00;;;;;;4996886;28;20460;-75
2022/12/20 04:03:45;;;;;;;4.97;3.37;;;1.80;98.00;;;;;;4996530;28;20464;-74
2022/12/20 04:06:13;;;;;;;14.20;4.43;;;1.80;98.00;;;;;;4996099;28;20456;-75
2022/12/20 04:08:43;;;;;;;5.67;3.50;;;1.70;98.00;;;;;;4996392;28;20464;-75
2022/12/20 04:11:16;;;;;;;6.80;4.53;;;1.50;98.00;;;;;;4996720;28;20461;-75
2022/12/20 04:13:44;;;;;;;8.43;3.40;;;1.50;98.00;;;;;;4979801;28;20466;-75
2022/12/20 04:16:12;;;;;;;4.87;3.43;;;1.70;98.00;;;;;;4996383;28;21020;-76
2022/12/20 04:18:39;;;;;;;5.33;4.17;;;1.60;98.00;;;;;;4996348;28;20478;-76
2022/12/20 04:21:08;;;;;;;6.53;4.40;;;1.60;98.00;;;;;;4996654;28;20467;-75
2022/12/20 04:23:35;;;;;;;2.90;2.70;;;1.50;98.00;;;;;;4996341;28;20460;-75
2022/12/20 04:26:08;;;;;;;4.17;3.17;;;1.60;98.00;;;;;;4996538;28;20456;-75
2022/12/20 04:28:36;;;;;;;4.30;3.73;;;1.80;98.00;;;;;;4995789;28;20491;-75
2022/12/20 04:31:03;;;;;;;8.13;4.13;;;1.70;98.00;;;;;;4996215;28;20504;-75
2022/12/20 04:33:32;;;;;;;3.30;3.13;;;1.80;98.00;;;;;;4996139;28;20547;-75
2022/12/20 04:35:59;;;;;;;7.27;4.27;;;1.80;98.00;;;;;;4996176;28;20554;-74
2022/12/20 04:38:26;;;;;;;3.13;3.00;;;1.80;98.00;;;;;;4996173;28;20813;-75
2022/12/20 04:40:54;;;;;;;3.83;3.10;;;1.80;98.00;;;;;;4995986;28;20460;-75
2022/12/20 04:43:27;;;;;;;9.30;4.20;;;1.80;98.00;;;;;;4995932;28;20457;-75
2022/12/20 04:45:56;;;;;;;3.67;2.40;;;1.70;98.00;;;;;;4996190;28;20460;-75
2022/12/20 04:48:25;;;;;;;9.20;3.73;;;1.70;98.00;;;;;;4995605;28;20456;-75
2022/12/20 04:50:54;;;;;;;5.20;3.00;;;1.70;98.00;;;;;;4995764;28;20465;-75
2022/12/20 04:56:07;;;;;;;9.10;3.23;;;1.70;98.00;;;;;;4995634;28;21041;-75
2022/12/20 04:58:35;;;;;;;5.67;3.07;;;1.80;98.00;;;;;;4978287;28;20464;-75
2022/12/20 05:01:02;;;;;;;2.93;2.27;;;1.80;98.00;;;;;;4995519;28;20460;-76
2022/12/20 05:03:29;;;;;;;5.60;3.40;;;1.80;98.00;;;;;;4995443;28;20479;-75
2022/12/20 05:05:59;;;;;;;7.03;4.10;;;1.80;98.00;;;;;;4995343;28;20460;-74
2022/12/20 05:08:26;;;;;;;3.60;2.73;;;1.80;98.00;;;;;;4994700;28;21100;-74
2022/12/20 05:10:53;;;;;;;7.40;3.10;;;1.80;98.00;;;;;;4977494;28;20463;-74
2022/12/20 05:13:20;;;;;;;5.93;3.70;;;1.80;98.00;;;;;;4994845;28;20864;-74
2022/12/20 05:15:52;;;;;;;7.47;3.77;;;1.80;98.00;;;;;;4995206;28;20986;-74
2022/12/20 05:18:19;;;;;;;8.43;5.13;;;1.80;98.00;;;;;;4995328;28;20461;-75
2022/12/20 05:20:47;;;;;;;6.10;3.10;;;1.80;98.00;;;;;;4995375;28;20464;-75
2022/12/20 05:26:17;;;;;;;3.80;3.57;;;1.80;98.00;;;;;;4995761;28;20544;-75
2022/12/20 05:28:45;;;;;;;8.40;4.57;;;1.80;98.00;;;;;;4995160;28;20452;-75
2022/12/20 05:31:14;;;;;;;3.33;2.57;;;1.90;98.00;;;;;;4995219;28;20536;-75
2022/12/20 05:33:42;;;;;;;8.40;3.60;;;2.10;98.00;;;;;;4994779;28;20460;-75
2022/12/20 05:36:10;;;;;;;9.43;4.40;;;2.00;98.00;;;;;;4995061;28;20491;-75
2022/12/20 05:38:37;;;;;;;8.20;3.47;;;2.00;98.00;;;;;;4994684;28;20467;-75
2022/12/20 05:41:05;;;;;;;5.57;3.83;;;2.10;98.00;;;;;;4994858;28;20460;-75
2022/12/20 05:43:32;;;;;;;9.63;4.80;;;2.10;98.00;;;;;;4994581;28;20457;-75
2022/12/20 05:46:00;;;;;;;6.40;3.83;;;2.00;98.00;;;;;;4994722;28;20519;-75
2022/12/20 05:48:28;;;;;;;4.30;2.63;;;2.00;98.00;;;;;;4994615;28;20480;-74
2022/12/20 05:50:56;;;;;;;2.70;2.30;;;2.00;98.00;;;;;;4994671;28;20838;-75
2022/12/20 05:53:23;;;;;;;5.63;3.60;;;2.10;98.00;;;;;;4977202;28;20460;-76
2022/12/20 05:55:52;;;;;;;3.00;2.90;;;2.00;98.00;;;;;;4994486;28;20488;-75
2022/12/20 05:58:19;;;;;;;10.30;4.13;;;2.00;98.00;;;;;;4994351;28;20457;-74
2022/12/20 06:00:46;;;;;;;6.50;3.80;;;2.00;98.00;;;;;;4994289;28;20466;-75
2022/12/20 06:03:14;;;;;;;9.03;3.90;;;2.00;98.00;;;;;;4977107;28;20507;-75
2022/12/20 06:05:43;;;;;;;8.03;4.07;;;2.00;98.00;;;;;;4994450;28;20484;-75
2022/12/20 06:08:12;;;;;;;9.23;4.30;;;2.10;98.00;;;;;;4994436;28;20456;-75
2022/12/20 06:10:41;;;;;;;5.87;2.93;;;2.00;98.00;;;;;;4994314;28;20457;-75
2022/12/20 06:13:11;;;;;;;5.93;4.10;;;2.00;98.00;;;;;;4994295;28;20460;-75
2022/12/20 06:15:42;;;;;;;10.20;3.80;;;1.90;98.00;;;;;;4994088;28;20476;-76
2022/12/20 06:18:10;;;;;;;5.10;3.23;;;1.90;98.00;;;;;;4994034;28;20943;-75
2022/12/20 06:20:38;;;;;;;4.37;3.37;;;2.00;98.00;;;;;;4994340;28;20461;-75
2022/12/20 06:23:08;;;;;;;6.57;4.03;;;2.00;98.00;;;;;;4993556;28;20464;-75
2022/12/20 06:25:36;;;;;;;7.03;3.50;;;1.90;98.00;;;;;;4994351;28;20437;-74
2022/12/20 06:28:04;;;;;;;9.17;5.00;;;1.90;98.00;;;;;;4993832;28;20467;-76
2022/12/20 06:30:31;;;;;;;7.40;4.10;;;1.80;98.00;;;;;;4993846;28;20469;-75
2022/12/20 06:32:58;;;;;;;5.37;3.50;;;1.70;98.00;;;;;;4993530;28;20452;-75
2022/12/20 06:35:25;;;;;;;5.30;3.17;;;1.70;98.00;;;;;;4993590;28;21022;-75
2022/12/20 06:37:52;;;;;;;5.93;3.37;;;1.80;98.00;;;;;;4993619;28;20460;-75
2022/12/20 06:40:23;;;;;;;10.73;3.47;;;1.70;98.00;;;;;;4993793;28;20523;-75
2022/12/20 06:42:50;;;;;;;3.00;2.10;;;1.70;98.00;;;;;;4993678;28;20990;-75
2022/12/20 06:45:17;;;;;;;6.60;3.03;;;1.70;98.00;;;;;;4993840;28;20460;-75
2022/12/20 06:47:45;;;;;;;6.77;3.70;;;1.70;98.00;;;;;;4993495;28;20467;-75
2022/12/20 06:50:12;;;;;;;11.67;3.67;;;1.70;98.00;;;;;;4993578;28;20476;-75
2022/12/20 06:52:41;;;;;;;6.43;2.73;;;1.70;98.00;;;;;;4993347;28;20468;-75
2022/12/20 06:55:09;;;;;;;5.53;3.60;;;1.70;98.00;;;;;;4993472;28;20476;-74
2022/12/20 06:57:37;;;;;;;6.07;3.63;;;1.80;98.00;;;;;;4976055;28;20457;-75
2022/12/20 07:00:07;;;;;;;8.90;3.13;;;1.80;98.00;;;;;;4993473;28;20860;-75
2022/12/20 07:02:34;;;;;;;4.40;3.27;;;1.80;98.00;;;;;;4993279;28;20551;-75
2022/12/20 07:05:02;;;;;;;2.40;2.27;;;1.80;98.00;;;;;;4993224;28;20552;-75
2022/12/20 07:07:29;;;;;;;4.60;2.80;;;1.80;98.00;;;;;;4993267;28;20993;-75
2022/12/20 07:09:59;;;;;;;4.73;3.40;;;1.80;98.00;;;;;;4993432;28;20464;-75
2022/12/20 07:12:26;;;;;;;5.23;3.07;;;1.80;98.00;;;;;;4993367;28;20457;-75
2022/12/20 07:14:55;;;;;;;6.40;2.87;;;1.80;98.00;;;;;;4993422;28;20460;-75
2022/12/20 07:17:22;;;;;;;6.30;3.43;;;1.80;98.00;;;;;;4993121;28;20484;-75
2022/12/20 07:19:49;;;;;;;3.53;2.80;;;1.80;98.00;;;;;;4993048;28;20469;-75
2022/12/20 07:22:16;;;;;;;10.90;4.27;;;1.90;98.00;;;;;;4976112;28;20959;-75
2022/12/20 07:24:43;;;;;;;5.50;3.03;;;1.80;98.00;;;;;;4992889;28;20479;-72
2022/12/20 07:27:11;;;;;;;4.60;2.70;;;1.90;98.00;;;;;;4975902;28;20465;-72
2022/12/20 07:29:40;;;;;;;7.33;4.43;;;1.90;98.00;;;;;;4992569;28;21014;-72
2022/12/20 07:34:54;;;;;;;9.27;4.47;;;2.00;98.00;;;;;;4990712;28;20452;-72
2022/12/20 07:37:21;;;;;;;7.57;3.63;;;2.30;98.00;;;;;;4991701;28;20489;-72
2022/12/20 07:39:48;;;;;;;3.63;2.93;;;2.30;98.00;;;;;;4991873;28;20456;-72
2022/12/20 07:42:15;;;;;;;8.20;3.00;;;2.30;98.00;;;;;;4991831;28;20969;-72
2022/12/20 07:44:42;;;;;;;3.43;2.80;;;2.30;98.00;;;;;;4991806;28;20507;-72
2022/12/20 07:47:09;;;;;;;8.60;3.53;;;2.30;98.00;;;;;;4991852;28;20464;-72
2022/12/20 07:49:38;;;;;;;6.00;3.47;;;2.30;98.00;;;;;;4992461;28;20559;-72
2022/12/20 07:52:07;;;;;;;7.40;3.83;;;2.30;98.00;;;;;;4992713;28;20460;-72
2022/12/20 07:54:38;;;;;;;5.97;2.90;;;2.30;98.00;;;;;;4992456;28;20468;-72
2022/12/20 07:57:11;;;;;;;5.60;3.00;;;2.30;98.00;;;;;;4975099;28;20547;-72
2022/12/20 07:59:41;;;;;;;6.13;3.13;;;2.20;98.00;;;;;;4991671;28;20456;-72
2022/12/20 08:02:12;;;;;;;4.63;3.17;;;2.20;98.00;;;;;;4991570;28;20956;-72
2022/12/20 08:04:42;;;;;;;4.40;2.70;;;2.30;98.00;;;;;;4991569;28;20468;-72
2022/12/20 08:07:09;;;;;;;14.53;4.17;;;2.30;98.00;;;;;;4991932;28;20467;-72
2022/12/20 08:09:42;;;;;;;11.80;4.07;;;2.40;98.00;;;;;;4991931;28;20457;-72
2022/12/20 08:12:11;;;;;;;4.53;2.90;;;2.50;98.00;;;;;;4992729;28;21014;-72
2022/12/20 08:14:38;;;;;;;8.37;5.20;;;2.60;98.00;;;;;;4992299;28;20464;-72
2022/12/20 08:17:05;;;;;;;5.80;3.00;;;2.60;98.00;;;;;;4992141;28;20489;-72
2022/12/20 08:19:32;;;;;;;6.93;3.73;;;2.70;98.00;;;;;;4991138;28;20457;-72
2022/12/20 08:22:01;;;;;;;2.90;2.70;;;2.70;98.00;;;;;;4991581;28;20468;-72
2022/12/20 08:24:28;;;;;;;8.43;3.97;;;2.70;98.00;;;;;;4991560;28;20455;-72
2022/12/20 08:26:56;;;;;;;3.30;3.10;;;2.80;98.00;;;;;;4992236;28;20460;-72
2022/12/20 08:29:24;;;;;;;11.30;3.57;;;2.90;98.00;;;;;;4974527;28;20456;-72
2022/12/20 08:31:52;;;;;;;6.27;3.33;;;3.00;98.00;;;;;;4991544;28;20465;-72
2022/12/20 08:34:19;;;;;;;5.30;3.70;;;3.00;98.00;;;;;;4992078;28;20495;-74
2022/12/20 08:36:46;;;;;;;7.77;3.83;;;3.10;98.00;;;;;;4992152;28;20488;-72
2022/12/20 08:39:15;;;;;;;7.27;3.50;;;3.40;98.00;;;;;;4991790;28;20461;-72
2022/12/20 08:41:43;;;;;;;7.13;4.30;;;3.40;98.00;;;;;;4992095;28;20474;-72
2022/12/20 08:44:10;;;;;;;9.30;4.60;;;3.50;98.00;;;;;;4974884;28;20824;-72
2022/12/20 08:46:37;;;;;;;7.27;4.10;;;3.50;98.00;;;;;;4994918;28;20822;-72
2022/12/20 08:49:04;;;;;;;5.50;3.47;;;3.40;98.00;;;;;;4992774;28;20515;-72
2022/12/20 08:51:32;;;;;;;6.80;3.73;;;3.40;98.00;;;;;;4991191;28;20463;-72
2022/12/20 08:53:59;;;;;;;15.40;5.13;;;3.40;98.00;;;;;;4992831;28;20464;-72
2022/12/20 08:56:28;;;;;;;7.50;4.10;;;3.40;98.00;;;;;;4986017;28;20495;-72
2022/12/20 08:58:55;;;;;;;6.70;3.80;;;3.50;98.00;;;;;;4989663;28;20464;-72
2022/12/20 09:01:22;;;;;;;9.53;3.90;;;3.40;98.00;;;;;;4993721;28;20470;-72
2022/12/20 09:03:50;;;;;;;6.87;3.63;;;3.50;98.00;;;;;;4978790;28;20544;-72
2022/12/20 09:06:20;;;;;;;4.00;2.47;;;3.60;98.00;;;;;;4975411;28;20470;-72
2022/12/20 09:08:48;;;;;;;5.57;3.97;;;3.50;98.00;;;;;;4992706;28;20461;-72
2022/12/20 09:11:18;;;;;;;9.13;4.80;;;3.50;98.00;;;;;;4992119;28;21100;-72
2022/12/20 09:13:50;;;;;;;6.50;3.63;;;3.50;98.00;;;;;;4992382;28;20466;-74
2022/12/20 09:16:19;;;;;;;6.03;3.37;;;3.60;98.00;;;;;;4974838;28;20482;-74
2022/12/20 09:18:48;;;;;;;6.30;3.10;;;3.70;98.00;;;;;;4992416;28;20461;-74
2022/12/20 09:21:16;;;;;;;6.80;3.87;;;3.80;98.00;;;;;;4992606;28;20516;-74
2022/12/20 09:23:45;;;;;;;7.93;4.20;;;3.90;98.00;;;;;;4992297;28;20461;-74
2022/12/20 09:26:16;;;;;;;11.63;3.70;;;3.90;98.00;;;;;;4992287;28;20836;-71
2022/12/20 09:28:47;;;;;;;3.80;2.87;;;3.80;98.00;;;;;;4992641;28;20531;-73
2022/12/20 09:31:16;;;;;;;16.57;2.73;;;3.90;98.00;;;;;;4991873;28;20511;-72
2022/12/20 09:33:44;;;;;;;11.13;4.43;;;4.20;98.00;;;;;;4992401;28;20467;-71
2022/12/20 09:36:12;;;;;;;4.77;3.70;;;4.20;98.00;;;;;;4991765;28;20493;-70
2022/12/20 09:38:40;;;;;;;4.67;3.83;;;4.10;98.00;;;;;;4991857;28;20463;-69
2022/12/20 09:41:16;;;;;;;8.53;4.60;;;4.10;98.00;;;;;;4974251;28;20462;-72
2022/12/20 09:43:44;;;;;;;9.97;4.50;;;4.10;98.00;;;;;;4975318;28;20474;-69
2022/12/20 09:46:15;;;;;;;4.17;3.00;;;4.00;98.00;;;;;;4974145;28;20463;-70
2022/12/20 09:48:43;;;;;;;7.10;3.50;;;4.20;98.00;;;;;;4991635;28;20480;-72
2022/12/20 09:51:21;;;;;;;7.40;4.27;;;4.20;98.00;;;;;;4989820;28;20827;-72
2022/12/20 09:53:59;;;;;;;6.60;3.20;;;4.20;98.00;;;;;;4982872;28;20462;-73
2022/12/20 09:56:30;;;;;;;8.97;4.20;;;4.20;98.00;;;;;;4990141;28;20488;-74
2022/12/20 09:59:01;;;;;;;5.63;3.83;;;4.20;98.00;;;;;;4992709;28;20783;-74
2022/12/20 10:01:32;;;;;;;5.80;3.97;;;4.30;98.00;;;;;;4992387;28;20472;-74
2022/12/20 10:04:02;;;;;;;8.23;4.90;;;4.10;98.00;;;;;;4992287;28;20472;-74
2022/12/20 10:06:40;;;;;;;7.50;5.27;;;4.00;98.00;;;;;;4974662;28;20474;-74
2022/12/20 10:09:18;;;;;;;7.77;4.10;;;4.10;98.00;;;;;;4991447;28;20795;-74
2022/12/20 10:12:01;;;;;;;6.80;3.80;;;4.10;98.00;;;;;;4991308;28;20465;-74
2022/12/20 10:14:50;;;;;;;5.93;3.37;;;4.30;98.00;;;;;;4991350;28;20861;-74
2022/12/20 10:17:30;;;;;;;10.53;3.60;;;4.40;98.00;;;;;;4974599;28;20548;-72
2022/12/20 10:20:23;;;;;;;11.90;4.53;;;4.40;98.00;;;;;;4991076;28;20952;-72
2022/12/20 10:22:56;;;;;;;15.90;5.60;;;4.50;98.00;;;;;;4986149;28;20475;-72
2022/12/20 10:25:24;;;;;;;8.07;4.70;;;4.50;98.00;;;;;;4991259;28;20814;-72
2022/12/20 10:27:55;;;;;;;8.90;4.30;;;4.60;98.00;;;;;;4994299;28;20462;-74
2022/12/20 10:30:24;;;;;;;11.97;5.60;;;4.60;98.00;;;;;;4984106;28;20458;-72
2022/12/20 10:32:55;;;;;;;7.23;4.20;;;4.50;98.00;;;;;;4998543;28;20472;-72
2022/12/20 10:35:26;;;;;;;9.30;5.13;;;4.70;98.00;;;;;;4991082;28;20477;-74
2022/12/20 10:38:02;;;;;;;7.67;4.40;;;4.80;98.00;;;;;;4990605;28;20490;-73
2022/12/20 10:40:32;;;;;;;10.37;4.80;;;4.80;98.00;;;;;;4990643;28;20520;-71
2022/12/20 10:43:00;;;;;;;8.53;5.53;;;4.80;98.00;;;;;;4990272;28;20458;-72
2022/12/20 10:45:33;;;;;;;9.00;5.60;;;4.90;98.00;;;;;;4992902;28;20469;-71
2022/12/20 10:48:04;;;;;;;13.33;6.00;;;4.80;98.00;;;;;;4991268;28;20554;-72
2022/12/20 10:50:31;;;;;;;10.97;5.90;;;4.80;98.00;;;;;;4988820;28;20818;-74
2022/12/20 10:53:21;;;;;;;5.60;4.00;;;4.80;98.00;;;;;;4993009;28;20461;-71
2022/12/20 10:55:49;;;;;;;4.80;3.70;;;4.70;98.00;;;;;;4994765;28;20912;-73
2022/12/20 10:58:17;;;;;;;6.00;3.40;;;4.60;98.00;;;;;;4995064;28;20488;-72
2022/12/20 11:00:45;;;;;;;7.77;3.63;;;4.70;98.00;;;;;;4989987;28;20492;-72
2022/12/20 11:03:23;;;;;;;16.77;6.03;;;4.80;98.00;;;;;;4972758;28;20509;-72
2022/12/20 11:05:58;;;;;;;9.53;4.53;;;5.00;98.00;;;;;;4989866;28;20497;-73
2022/12/20 11:08:26;;;;;;;11.37;6.13;;;4.90;98.00;;;;;;4989758;28;20529;-72
2022/12/20 11:11:15;;;;;;;7.40;4.40;;;4.80;98.00;;;;;;4989877;28;20803;-72
2022/12/20 11:13:43;;;;;;;12.83;5.17;;;4.70;98.00;;;;;;4989605;28;20888;-72
2022/12/20 11:16:33;;;;;;;7.03;4.37;;;4.60;98.00;;;;;;4990997;28;20877;-72
2022/12/20 11:19:16;;;;;;;9.50;5.63;;;4.40;98.00;;;;;;4992148;28;21048;-72
2022/12/20 11:21:50;;;;;;;6.07;4.07;;;4.30;98.00;;;;;;4995217;28;20462;-72
2022/12/20 11:24:25;;;;;;;12.60;4.93;;;4.40;98.00;;;;;;5011953;28;20461;-72
2022/12/20 11:27:04;;;;;;;11.90;5.57;;;4.30;98.00;;;;;;5011736;28;20462;-72
2022/12/20 11:29:57;;;;;;;7.93;3.50;;;4.40;98.00;;;;;;5011570;28;20469;-72
2022/12/20 11:32:36;;;;;;;16.83;5.23;;;4.40;98.00;;;;;;5011173;28;20874;-73
2022/12/20 11:35:13;;;;;;;19.90;4.93;;;4.50;98.00;;;;;;5012187;28;20462;-72
2022/12/20 11:37:48;;;;;;;13.73;5.87;;;4.50;98.00;;;;;;5011546;28;20492;-72
2022/12/20 11:40:30;;;;;;;11.30;4.93;;;4.60;98.00;;;;;;5011554;28;20838;-72
2022/12/20 11:43:15;;;;;;;8.20;4.80;;;4.60;98.00;;;;;;5011750;28;20507;-73
2022/12/20 11:45:53;;;;;;;10.50;4.70;;;4.60;98.00;;;;;;4995489;28;20470;-72
2022/12/20 11:48:41;;;;;;;7.53;4.40;;;4.70;98.00;;;;;;5011559;28;20812;-72
2022/12/20 11:51:20;;;;;;;9.20;4.53;;;4.70;98.00;;;;;;5012781;28;20820;-73
2022/12/20 11:53:54;;;;;;;6.90;3.70;;;4.70;98.00;;;;;;5012446;28;20883;-72
2022/12/20 11:56:25;;;;;;;7.87;4.70;;;4.60;98.00;;;;;;5012312;28;21015;-72
2022/12/20 11:58:57;;;;;;;9.87;5.70;;;4.60;98.00;;;;;;5012091;28;20846;-72
2022/12/20 12:01:29;;;;;;;12.30;4.67;;;4.70;98.00;;;;;;5011756;28;20469;-72
2022/12/20 12:04:05;;;;;;;12.70;4.73;;;4.60;98.00;;;;;;5012015;28;21016;-72
2022/12/20 12:06:35;;;;;;;7.20;4.30;;;4.70;98.00;;;;;;5011119;28;20503;-73
2022/12/20 12:09:14;;;;;;;6.30;4.10;;;4.80;98.00;;;;;;5011309;28;20468;-73
2022/12/20 12:11:47;;;;;;;9.30;5.23;;;4.90;98.00;;;;;;5011521;28;20470;-72
2022/12/20 12:14:31;;;;;;;8.17;4.00;;;5.00;98.00;;;;;;5011242;28;20875;-72
2022/12/20 12:17:13;;;;;;;8.37;4.33;;;5.10;98.00;;;;;;5011253;28;20496;-73
2022/12/20 12:19:43;;;;;;;10.20;4.80;;;5.10;98.00;;;;;;4994569;28;20554;-73
2022/12/20 12:22:16;;;;;;;9.67;4.83;;;5.20;98.00;;;;;;4992798;28;20478;-72
2022/12/20 12:24:48;;;;;;;6.40;4.13;;;5.20;98.00;;;;;;4992934;28;20479;-73
2022/12/20 12:27:23;;;;;;;8.57;4.27;;;5.20;98.00;;;;;;4993136;28;20962;-72
2022/12/20 12:29:53;;;;;;;9.23;4.73;;;5.30;98.00;;;;;;4992768;28;20498;-73
2022/12/20 12:32:29;;;;;;;10.73;5.50;;;5.30;98.00;;;;;;4992390;28;20464;-72
2022/12/20 12:35:18;;;;;;;7.40;3.50;;;5.40;98.00;;;;;;4992912;28;20500;-73
2022/12/20 12:37:55;;;;;;;10.00;4.10;;;5.40;98.00;;;;;;4992770;28;21008;-72
2022/12/20 12:40:55;;;;;;;4.83;3.90;;;5.30;98.00;;;;;;4992517;28;20467;-71
2022/12/20 12:43:49;;;;;;;14.47;4.23;;;5.30;98.00;;;;;;4992602;28;20465;-73
2022/12/20 12:46:19;;;;;;;7.70;4.60;;;5.30;98.00;;;;;;4986677;28;20518;-72
2022/12/20 12:48:52;;;;;;;11.17;5.63;;;5.20;98.00;;;;;;4992574;28;20470;-72
2022/12/20 12:51:26;;;;;;;8.03;4.43;;;5.20;98.00;;;;;;4991285;28;20486;-74
2022/12/20 12:54:02;;;;;;;8.40;4.60;;;5.20;98.00;;;;;;4993220;28;20468;-72
2022/12/20 12:56:40;;;;;;;7.83;3.87;;;5.60;98.00;;;;;;4993002;28;20555;-72
2022/12/20 12:59:50;;;;;;;7.33;4.40;;;5.80;98.00;;;;;;4995095;28;20574;-73
2022/12/20 13:02:48;;;;;;;16.70;5.70;;;5.90;98.00;;;;;;4994617;28;20564;-73
2022/12/20 13:05:34;;;;;;;11.67;5.30;;;6.10;98.00;;;;;;4994586;28;20468;-73
2022/12/20 13:08:01;;;;;;;9.67;4.70;;;6.10;98.00;;;;;;4994217;28;20982;-72
2022/12/20 13:11:01;;;;;;;6.27;3.90;;;6.20;98.00;;;;;;4993436;28;20469;-73
2022/12/20 13:13:29;;;;;;;8.70;4.73;;;6.20;98.00;;;;;;4994544;28;20471;-73
2022/12/20 13:16:11;;;;;;;6.60;4.30;;;6.20;98.00;;;;;;4994725;28;20457;-72
2022/12/20 13:18:56;;;;;;;8.47;3.57;;;6.10;98.00;;;;;;4994525;28;20493;-73
2022/12/20 13:21:39;;;;;;;6.70;3.70;;;6.10;98.00;;;;;;4977545;28;20457;-73
2022/12/20 13:24:52;;;;;;;19.83;6.27;;;6.20;98.00;;;;;;4994951;28;20825;-72
2022/12/20 13:27:26;;;;;;;9.60;4.70;;;6.10;98.00;;;;;;4977616;28;20474;-72